sensor_id;sensor_type;location;lat;lon;timestamp;P1;durP1;ratioP1;P2;durP2;ratioP2
21827;SDS011;11076;47.942;11.804;2023-09-07T00:02:20;7.97;;;6.13;;
21827;SDS011;11076;47.942;11.804;2023-09-07T00:07:26;10.77;;;6.38;;
21827;SDS011;11076;47.942;11.804;2023-09-07T00:12:29;8.70;;;6.13;;
21827;SDS011;11076;47.942;11.804;2023-09-07T00:17:31;11.48;;;6.20;;
21827;SDS011;11076;47.942;11.804;2023-09-07T00:22:34;8.27;;;6.97;;
21827;SDS011;11076;47.942;11.804;2023-09-07T00:27:36;9.00;;;7.32;;
21827;SDS011;11076;47.942;11.804;2023-09-07T00:32:39;7.68;;;6.85;;
21827;SDS011;11076;47.942;11.804;2023-09-07T00:37:42;10.60;;;8.35;;
21827;SDS011;11076;47.942;11.804;2023-09-07T00:42:44;9.75;;;8.05;;
21827;SDS011;11076;47.942;11.804;2023-09-07T00:47:47;7.80;;;7.00;;
21827;SDS011;11076;47.942;11.804;2023-09-07T00:52:49;8.48;;;7.55;;
21827;SDS011;11076;47.942;11.804;2023-09-07T00:57:52;10.05;;;8.00;;
21827;SDS011;11076;47.942;11.804;2023-09-07T01:02:56;8.88;;;7.97;;
21827;SDS011;11076;47.942;11.804;2023-09-07T01:08:01;9.35;;;7.65;;
21827;SDS011;11076;47.942;11.804;2023-09-07T01:13:12;11.25;;;7.85;;
21827;SDS011;11076;47.942;11.804;2023-09-07T01:18:14;10.20;;;8.50;;
21827;SDS011;11076;47.942;11.804;2023-09-07T01:23:24;8.98;;;8.07;;
21827;SDS011;11076;47.942;11.804;2023-09-07T01:28:27;9.93;;;7.60;;
21827;SDS011;11076;47.942;11.804;2023-09-07T01:33:30;10.48;;;8.00;;
21827;SDS011;11076;47.942;11.804;2023-09-07T01:38:32;8.82;;;7.07;;
21827;SDS011;11076;47.942;11.804;2023-09-07T01:43:35;9.88;;;8.27;;
21827;SDS011;11076;47.942;11.804;2023-09-07T01:48:39;9.35;;;8.30;;
21827;SDS011;11076;47.942;11.804;2023-09-07T01:53:46;9.77;;;8.23;;
21827;SDS011;11076;47.942;11.804;2023-09-07T01:58:50;10.95;;;8.70;;
21827;SDS011;11076;47.942;11.804;2023-09-07T02:03:52;14.13;;;9.05;;
21827;SDS011;11076;47.942;11.804;2023-09-07T02:08:55;9.68;;;8.63;;
21827;SDS011;11076;47.942;11.804;2023-09-07T02:13:58;15.95;;;9.55;;
21827;SDS011;11076;47.942;11.804;2023-09-07T02:19:02;12.13;;;8.85;;
21827;SDS011;11076;47.942;11.804;2023-09-07T02:24:05;11.23;;;8.70;;
21827;SDS011;11076;47.942;11.804;2023-09-07T02:29:10;17.02;;;8.98;;
21827;SDS011;11076;47.942;11.804;2023-09-07T02:34:13;10.93;;;9.13;;
21827;SDS011;11076;47.942;11.804;2023-09-07T02:39:15;12.43;;;9.75;;
21827;SDS011;11076;47.942;11.804;2023-09-07T02:44:19;14.32;;;9.32;;
21827;SDS011;11076;47.942;11.804;2023-09-07T02:49:22;10.93;;;8.57;;
21827;SDS011;11076;47.942;11.804;2023-09-07T02:54:25;12.30;;;8.52;;
21827;SDS011;11076;47.942;11.804;2023-09-07T02:59:28;9.75;;;7.45;;
21827;SDS011;11076;47.942;11.804;2023-09-07T03:04:31;11.38;;;8.27;;
21827;SDS011;11076;47.942;11.804;2023-09-07T03:09:34;10.50;;;7.45;;
21827;SDS011;11076;47.942;11.804;2023-09-07T03:14:37;9.48;;;7.93;;
21827;SDS011;11076;47.942;11.804;2023-09-07T03:19:40;11.43;;;8.15;;
21827;SDS011;11076;47.942;11.804;2023-09-07T03:24:42;12.40;;;7.53;;
21827;SDS011;11076;47.942;11.804;2023-09-07T03:29:45;11.02;;;7.85;;
21827;SDS011;11076;47.942;11.804;2023-09-07T03:34:48;9.18;;;7.07;;
21827;SDS011;11076;47.942;11.804;2023-09-07T03:39:50;11.70;;;7.60;;
21827;SDS011;11076;47.942;11.804;2023-09-07T03:44:53;12.40;;;7.38;;
21827;SDS011;11076;47.942;11.804;2023-09-07T03:49:56;10.77;;;8.18;;
21827;SDS011;11076;47.942;11.804;2023-09-07T03:54:59;11.88;;;8.32;;
21827;SDS011;11076;47.942;11.804;2023-09-07T04:00:03;11.80;;;9.18;;
21827;SDS011;11076;47.942;11.804;2023-09-07T04:05:21;12.07;;;9.43;;
21827;SDS011;11076;47.942;11.804;2023-09-07T04:10:24;13.02;;;10.45;;
21827;SDS011;11076;47.942;11.804;2023-09-07T04:15:26;13.02;;;10.27;;
21827;SDS011;11076;47.942;11.804;2023-09-07T04:20:28;13.45;;;9.65;;
21827;SDS011;11076;47.942;11.804;2023-09-07T04:25:32;11.85;;;9.27;;
21827;SDS011;11076;47.942;11.804;2023-09-07T04:30:38;10.73;;;7.95;;
21827;SDS011;11076;47.942;11.804;2023-09-07T04:35:41;13.52;;;8.88;;
21827;SDS011;11076;47.942;11.804;2023-09-07T04:40:44;18.05;;;8.82;;
21827;SDS011;11076;47.942;11.804;2023-09-07T04:45:46;10.55;;;8.55;;
21827;SDS011;11076;47.942;11.804;2023-09-07T04:50:56;11.63;;;7.45;;
21827;SDS011;11076;47.942;11.804;2023-09-07T04:56:00;10.63;;;8.65;;
21827;SDS011;11076;47.942;11.804;2023-09-07T05:01:04;12.70;;;9.45;;
21827;SDS011;11076;47.942;11.804;2023-09-07T05:06:07;13.15;;;8.88;;
21827;SDS011;11076;47.942;11.804;2023-09-07T05:11:10;12.60;;;9.05;;
21827;SDS011;11076;47.942;11.804;2023-09-07T05:16:13;12.45;;;8.55;;
21827;SDS011;11076;47.942;11.804;2023-09-07T05:21:16;10.50;;;9.05;;
21827;SDS011;11076;47.942;11.804;2023-09-07T05:26:22;10.77;;;8.77;;
21827;SDS011;11076;47.942;11.804;2023-09-07T05:31:26;15.52;;;10.60;;
21827;SDS011;11076;47.942;11.804;2023-09-07T05:36:29;17.63;;;10.20;;
21827;SDS011;11076;47.942;11.804;2023-09-07T05:41:32;14.27;;;10.77;;
21827;SDS011;11076;47.942;11.804;2023-09-07T05:46:34;15.35;;;12.10;;
21827;SDS011;11076;47.942;11.804;2023-09-07T05:51:37;14.35;;;11.68;;
21827;SDS011;11076;47.942;11.804;2023-09-07T05:56:40;14.07;;;10.38;;
21827;SDS011;11076;47.942;11.804;2023-09-07T06:01:42;24.88;;;12.25;;
21827;SDS011;11076;47.942;11.804;2023-09-07T06:06:45;16.42;;;12.80;;
21827;SDS011;11076;47.942;11.804;2023-09-07T06:11:49;19.33;;;13.07;;
21827;SDS011;11076;47.942;11.804;2023-09-07T06:16:52;22.13;;;15.32;;
21827;SDS011;11076;47.942;11.804;2023-09-07T06:21:55;22.92;;;15.63;;
21827;SDS011;11076;47.942;11.804;2023-09-07T06:26:57;17.90;;;15.32;;
21827;SDS011;11076;47.942;11.804;2023-09-07T06:32:00;26.20;;;16.90;;
21827;SDS011;11076;47.942;11.804;2023-09-07T06:37:03;22.60;;;15.82;;
21827;SDS011;11076;47.942;11.804;2023-09-07T06:42:07;19.80;;;15.57;;
21827;SDS011;11076;47.942;11.804;2023-09-07T06:47:16;18.45;;;15.45;;
21827;SDS011;11076;47.942;11.804;2023-09-07T06:52:19;21.55;;;15.13;;
21827;SDS011;11076;47.942;11.804;2023-09-07T06:57:21;16.33;;;12.65;;
21827;SDS011;11076;47.942;11.804;2023-09-07T07:02:25;17.48;;;12.63;;
21827;SDS011;11076;47.942;11.804;2023-09-07T07:07:28;12.95;;;11.60;;
21827;SDS011;11076;47.942;11.804;2023-09-07T07:12:31;17.27;;;11.93;;
21827;SDS011;11076;47.942;11.804;2023-09-07T07:17:37;12.85;;;11.00;;
21827;SDS011;11076;47.942;11.804;2023-09-07T07:22:40;13.70;;;11.38;;
21827;SDS011;11076;47.942;11.804;2023-09-07T07:27:44;13.63;;;10.23;;
21827;SDS011;11076;47.942;11.804;2023-09-07T07:32:48;12.32;;;10.60;;
21827;SDS011;11076;47.942;11.804;2023-09-07T07:37:53;13.82;;;10.60;;
21827;SDS011;11076;47.942;11.804;2023-09-07T07:42:56;12.60;;;10.57;;
21827;SDS011;11076;47.942;11.804;2023-09-07T07:47:58;12.98;;;10.95;;
21827;SDS011;11076;47.942;11.804;2023-09-07T07:53:01;16.85;;;10.20;;
21827;SDS011;11076;47.942;11.804;2023-09-07T07:58:07;13.38;;;9.65;;
21827;SDS011;11076;47.942;11.804;2023-09-07T08:03:12;11.45;;;9.27;;
21827;SDS011;11076;47.942;11.804;2023-09-07T08:08:15;12.63;;;8.55;;
21827;SDS011;11076;47.942;11.804;2023-09-07T08:13:18;9.98;;;8.43;;
21827;SDS011;11076;47.942;11.804;2023-09-07T08:18:22;12.43;;;8.10;;
21827;SDS011;11076;47.942;11.804;2023-09-07T08:23:26;10.52;;;7.90;;
21827;SDS011;11076;47.942;11.804;2023-09-07T08:28:28;12.40;;;8.88;;
21827;SDS011;11076;47.942;11.804;2023-09-07T08:33:32;11.32;;;8.10;;
21827;SDS011;11076;47.942;11.804;2023-09-07T08:38:37;9.02;;;8.00;;
21827;SDS011;11076;47.942;11.804;2023-09-07T08:43:44;7.35;;;6.40;;
21827;SDS011;11076;47.942;11.804;2023-09-07T08:48:50;10.90;;;7.72;;
21827;SDS011;11076;47.942;11.804;2023-09-07T08:53:53;7.78;;;7.00;;
21827;SDS011;11076;47.942;11.804;2023-09-07T08:58:58;10.10;;;7.05;;
21827;SDS011;11076;47.942;11.804;2023-09-07T09:04:00;8.75;;;7.10;;
21827;SDS011;11076;47.942;11.804;2023-09-07T09:09:03;6.68;;;5.97;;
21827;SDS011;11076;47.942;11.804;2023-09-07T09:14:08;7.30;;;5.75;;
21827;SDS011;11076;47.942;11.804;2023-09-07T09:19:11;11.05;;;5.72;;
21827;SDS011;11076;47.942;11.804;2023-09-07T09:24:13;12.68;;;9.73;;
21827;SDS011;11076;47.942;11.804;2023-09-07T09:29:21;10.63;;;7.65;;
21827;SDS011;11076;47.942;11.804;2023-09-07T09:34:25;8.57;;;6.50;;
21827;SDS011;11076;47.942;11.804;2023-09-07T09:39:27;12.23;;;7.63;;
21827;SDS011;11076;47.942;11.804;2023-09-07T09:44:30;7.93;;;6.32;;
21827;SDS011;11076;47.942;11.804;2023-09-07T09:49:33;7.15;;;6.45;;
21827;SDS011;11076;47.942;11.804;2023-09-07T09:54:35;7.18;;;5.80;;
21827;SDS011;11076;47.942;11.804;2023-09-07T09:59:38;6.97;;;6.28;;
21827;SDS011;11076;47.942;11.804;2023-09-07T10:04:41;9.45;;;6.07;;
21827;SDS011;11076;47.942;11.804;2023-09-07T10:09:44;7.93;;;6.18;;
21827;SDS011;11076;47.942;11.804;2023-09-07T10:14:47;9.55;;;6.95;;
21827;SDS011;11076;47.942;11.804;2023-09-07T10:20:03;9.07;;;6.40;;
21827;SDS011;11076;47.942;11.804;2023-09-07T10:25:18;7.78;;;6.28;;
21827;SDS011;11076;47.942;11.804;2023-09-07T10:30:24;9.15;;;6.30;;
21827;SDS011;11076;47.942;11.804;2023-09-07T10:35:27;7.72;;;6.93;;
21827;SDS011;11076;47.942;11.804;2023-09-07T10:40:32;6.95;;;6.25;;
21827;SDS011;11076;47.942;11.804;2023-09-07T10:45:34;8.48;;;6.28;;
21827;SDS011;11076;47.942;11.804;2023-09-07T10:50:43;6.72;;;6.03;;
21827;SDS011;11076;47.942;11.804;2023-09-07T10:55:46;7.60;;;6.35;;
21827;SDS011;11076;47.942;11.804;2023-09-07T11:00:49;6.80;;;6.10;;
21827;SDS011;11076;47.942;11.804;2023-09-07T11:11:05;14.75;;;7.32;;
21827;SDS011;11076;47.942;11.804;2023-09-07T11:16:08;12.38;;;7.57;;
21827;SDS011;11076;47.942;11.804;2023-09-07T11:21:11;8.25;;;7.40;;
21827;SDS011;11076;47.942;11.804;2023-09-07T11:26:13;8.82;;;6.78;;
21827;SDS011;11076;47.942;11.804;2023-09-07T11:31:19;10.90;;;6.68;;
21827;SDS011;11076;47.942;11.804;2023-09-07T11:36:23;10.60;;;6.50;;
21827;SDS011;11076;47.942;11.804;2023-09-07T11:41:26;10.98;;;6.63;;
21827;SDS011;11076;47.942;11.804;2023-09-07T11:46:29;12.32;;;6.75;;
21827;SDS011;11076;47.942;11.804;2023-09-07T11:51:31;10.27;;;6.47;;
21827;SDS011;11076;47.942;11.804;2023-09-07T11:56:34;6.65;;;5.95;;
21827;SDS011;11076;47.942;11.804;2023-09-07T12:01:41;8.77;;;5.95;;
21827;SDS011;11076;47.942;11.804;2023-09-07T12:06:44;9.80;;;6.07;;
21827;SDS011;11076;47.942;11.804;2023-09-07T12:11:46;7.05;;;5.70;;
21827;SDS011;11076;47.942;11.804;2023-09-07T12:16:48;7.30;;;5.05;;
21827;SDS011;11076;47.942;11.804;2023-09-07T12:21:51;8.60;;;6.20;;
21827;SDS011;11076;47.942;11.804;2023-09-07T12:26:53;9.63;;;6.75;;
21827;SDS011;11076;47.942;11.804;2023-09-07T12:31:56;7.28;;;5.72;;
21827;SDS011;11076;47.942;11.804;2023-09-07T12:36:59;7.18;;;6.03;;
21827;SDS011;11076;47.942;11.804;2023-09-07T12:42:01;7.75;;;5.47;;
21827;SDS011;11076;47.942;11.804;2023-09-07T12:47:04;8.20;;;4.93;;
21827;SDS011;11076;47.942;11.804;2023-09-07T12:52:07;7.28;;;5.57;;
21827;SDS011;11076;47.942;11.804;2023-09-07T12:57:11;6.97;;;5.28;;
21827;SDS011;11076;47.942;11.804;2023-09-07T13:02:14;6.60;;;5.13;;
21827;SDS011;11076;47.942;11.804;2023-09-07T13:07:17;6.47;;;4.80;;
21827;SDS011;11076;47.942;11.804;2023-09-07T13:12:20;6.53;;;4.80;;
21827;SDS011;11076;47.942;11.804;2023-09-07T13:17:22;9.18;;;4.70;;
21827;SDS011;11076;47.942;11.804;2023-09-07T13:22:24;5.88;;;3.95;;
21827;SDS011;11076;47.942;11.804;2023-09-07T13:27:27;4.75;;;4.10;;
21827;SDS011;11076;47.942;11.804;2023-09-07T13:32:29;4.50;;;3.90;;
21827;SDS011;11076;47.942;11.804;2023-09-07T13:37:32;9.35;;;3.70;;
21827;SDS011;11076;47.942;11.804;2023-09-07T13:42:36;5.18;;;3.92;;
21827;SDS011;11076;47.942;11.804;2023-09-07T13:47:40;6.47;;;4.32;;
21827;SDS011;11076;47.942;11.804;2023-09-07T13:52:43;8.68;;;3.95;;
21827;SDS011;11076;47.942;11.804;2023-09-07T13:57:45;4.38;;;3.97;;
21827;SDS011;11076;47.942;11.804;2023-09-07T14:02:49;5.80;;;3.70;;
21827;SDS011;11076;47.942;11.804;2023-09-07T14:07:52;6.65;;;3.72;;
21827;SDS011;11076;47.942;11.804;2023-09-07T14:12:54;5.22;;;3.78;;
21827;SDS011;11076;47.942;11.804;2023-09-07T14:17:56;9.77;;;4.00;;
21827;SDS011;11076;47.942;11.804;2023-09-07T14:22:59;6.95;;;4.40;;
21827;SDS011;11076;47.942;11.804;2023-09-07T14:28:02;6.53;;;4.10;;
21827;SDS011;11076;47.942;11.804;2023-09-07T14:33:05;6.10;;;4.20;;
21827;SDS011;11076;47.942;11.804;2023-09-07T14:38:08;7.75;;;4.10;;
21827;SDS011;11076;47.942;11.804;2023-09-07T14:43:10;11.38;;;4.28;;
21827;SDS011;11076;47.942;11.804;2023-09-07T14:48:13;7.93;;;4.20;;
21827;SDS011;11076;47.942;11.804;2023-09-07T14:53:15;10.07;;;4.07;;
21827;SDS011;11076;47.942;11.804;2023-09-07T14:58:18;4.75;;;4.13;;
21827;SDS011;11076;47.942;11.804;2023-09-07T15:03:20;6.35;;;4.00;;
21827;SDS011;11076;47.942;11.804;2023-09-07T15:08:23;8.52;;;4.03;;
21827;SDS011;11076;47.942;11.804;2023-09-07T15:13:26;4.75;;;4.15;;
21827;SDS011;11076;47.942;11.804;2023-09-07T15:18:28;4.95;;;3.72;;
21827;SDS011;11076;47.942;11.804;2023-09-07T15:23:30;4.45;;;4.03;;
21827;SDS011;11076;47.942;11.804;2023-09-07T15:28:33;7.65;;;4.32;;
21827;SDS011;11076;47.942;11.804;2023-09-07T15:33:35;7.35;;;4.25;;
21827;SDS011;11076;47.942;11.804;2023-09-07T15:38:38;20.35;;;16.38;;
21827;SDS011;11076;47.942;11.804;2023-09-07T15:43:40;9.13;;;5.50;;
21827;SDS011;11076;47.942;11.804;2023-09-07T15:48:43;11.13;;;5.57;;
21827;SDS011;11076;47.942;11.804;2023-09-07T15:53:45;9.68;;;7.65;;
21827;SDS011;11076;47.942;11.804;2023-09-07T15:58:47;12.52;;;6.30;;
21827;SDS011;11076;47.942;11.804;2023-09-07T16:03:51;9.50;;;8.02;;
21827;SDS011;11076;47.942;11.804;2023-09-07T16:08:54;8.13;;;5.60;;
21827;SDS011;11076;47.942;11.804;2023-09-07T16:13:56;7.03;;;4.72;;
21827;SDS011;11076;47.942;11.804;2023-09-07T16:18:59;6.88;;;4.60;;
21827;SDS011;11076;47.942;11.804;2023-09-07T16:24:02;6.35;;;4.50;;
21827;SDS011;11076;47.942;11.804;2023-09-07T16:29:04;6.22;;;3.97;;
21827;SDS011;11076;47.942;11.804;2023-09-07T16:34:07;4.18;;;3.78;;
21827;SDS011;11076;47.942;11.804;2023-09-07T16:39:09;5.20;;;4.18;;
21827;SDS011;11076;47.942;11.804;2023-09-07T16:44:11;4.55;;;3.63;;
21827;SDS011;11076;47.942;11.804;2023-09-07T16:49:14;4.32;;;3.92;;
21827;SDS011;11076;47.942;11.804;2023-09-07T16:54:16;4.72;;;4.22;;
21827;SDS011;11076;47.942;11.804;2023-09-07T16:59:19;9.40;;;4.45;;
21827;SDS011;11076;47.942;11.804;2023-09-07T17:04:40;7.00;;;4.57;;
21827;SDS011;11076;47.942;11.804;2023-09-07T17:09:42;8.32;;;3.88;;
21827;SDS011;11076;47.942;11.804;2023-09-07T17:14:45;6.97;;;4.13;;
21827;SDS011;11076;47.942;11.804;2023-09-07T17:19:49;7.70;;;4.07;;
21827;SDS011;11076;47.942;11.804;2023-09-07T17:24:52;11.45;;;5.10;;
21827;SDS011;11076;47.942;11.804;2023-09-07T17:29:54;5.70;;;4.78;;
21827;SDS011;11076;47.942;11.804;2023-09-07T17:35:03;5.28;;;4.32;;
21827;SDS011;11076;47.942;11.804;2023-09-07T17:40:06;6.28;;;4.30;;
21827;SDS011;11076;47.942;11.804;2023-09-07T17:45:10;5.93;;;4.15;;
21827;SDS011;11076;47.942;11.804;2023-09-07T17:50:12;7.97;;;4.88;;
21827;SDS011;11076;47.942;11.804;2023-09-07T17:55:15;9.52;;;6.13;;
21827;SDS011;11076;47.942;11.804;2023-09-07T18:00:17;6.28;;;4.97;;
21827;SDS011;11076;47.942;11.804;2023-09-07T18:05:20;9.40;;;6.60;;
21827;SDS011;11076;47.942;11.804;2023-09-07T18:10:23;8.73;;;5.72;;
21827;SDS011;11076;47.942;11.804;2023-09-07T18:15:26;7.80;;;5.60;;
21827;SDS011;11076;47.942;11.804;2023-09-07T18:20:28;8.75;;;5.95;;
21827;SDS011;11076;47.942;11.804;2023-09-07T18:25:37;10.02;;;6.40;;
21827;SDS011;11076;47.942;11.804;2023-09-07T18:30:40;8.27;;;6.95;;
21827;SDS011;11076;47.942;11.804;2023-09-07T18:35:43;8.77;;;5.53;;
21827;SDS011;11076;47.942;11.804;2023-09-07T18:40:45;7.35;;;5.82;;
21827;SDS011;11076;47.942;11.804;2023-09-07T18:45:48;6.95;;;5.60;;
21827;SDS011;11076;47.942;11.804;2023-09-07T18:50:58;10.73;;;6.50;;
21827;SDS011;11076;47.942;11.804;2023-09-07T18:56:02;11.32;;;7.28;;
21827;SDS011;11076;47.942;11.804;2023-09-07T19:01:12;11.35;;;7.50;;
21827;SDS011;11076;47.942;11.804;2023-09-07T19:06:16;8.68;;;6.50;;
21827;SDS011;11076;47.942;11.804;2023-09-07T19:11:19;7.65;;;5.97;;
21827;SDS011;11076;47.942;11.804;2023-09-07T19:16:21;9.38;;;5.85;;
21827;SDS011;11076;47.942;11.804;2023-09-07T19:21:26;7.32;;;5.55;;
21827;SDS011;11076;47.942;11.804;2023-09-07T19:31:36;9.52;;;6.00;;
21827;SDS011;11076;47.942;11.804;2023-09-07T19:36:39;6.55;;;4.90;;
21827;SDS011;11076;47.942;11.804;2023-09-07T19:41:42;7.18;;;5.43;;
21827;SDS011;11076;47.942;11.804;2023-09-07T19:46:44;8.93;;;6.97;;
21827;SDS011;11076;47.942;11.804;2023-09-07T19:51:47;11.80;;;6.88;;
21827;SDS011;11076;47.942;11.804;2023-09-07T19:56:49;12.90;;;6.78;;
21827;SDS011;11076;47.942;11.804;2023-09-07T20:01:53;7.75;;;6.43;;
21827;SDS011;11076;47.942;11.804;2023-09-07T20:06:59;7.10;;;6.35;;
21827;SDS011;11076;47.942;11.804;2023-09-07T20:12:02;7.93;;;6.38;;
21827;SDS011;11076;47.942;11.804;2023-09-07T20:17:04;9.50;;;6.05;;
21827;SDS011;11076;47.942;11.804;2023-09-07T20:22:07;8.00;;;6.22;;
21827;SDS011;11076;47.942;11.804;2023-09-07T20:27:09;6.03;;;5.25;;
21827;SDS011;11076;47.942;11.804;2023-09-07T20:32:11;6.72;;;5.72;;
21827;SDS011;11076;47.942;11.804;2023-09-07T20:37:14;7.15;;;6.13;;
21827;SDS011;11076;47.942;11.804;2023-09-07T20:42:16;10.77;;;6.78;;
21827;SDS011;11076;47.942;11.804;2023-09-07T20:47:19;11.38;;;6.70;;
21827;SDS011;11076;47.942;11.804;2023-09-07T20:52:22;8.35;;;6.68;;
21827;SDS011;11076;47.942;11.804;2023-09-07T20:57:25;9.82;;;6.53;;
21827;SDS011;11076;47.942;11.804;2023-09-07T21:02:28;8.32;;;5.60;;
21827;SDS011;11076;47.942;11.804;2023-09-07T21:07:30;8.05;;;6.57;;
21827;SDS011;11076;47.942;11.804;2023-09-07T21:12:33;7.35;;;6.03;;
21827;SDS011;11076;47.942;11.804;2023-09-07T21:17:36;10.48;;;6.50;;
21827;SDS011;11076;47.942;11.804;2023-09-07T21:22:39;9.82;;;6.55;;
21827;SDS011;11076;47.942;11.804;2023-09-07T21:27:42;8.02;;;6.30;;
21827;SDS011;11076;47.942;11.804;2023-09-07T21:32:46;7.68;;;6.10;;
21827;SDS011;11076;47.942;11.804;2023-09-07T21:37:48;8.95;;;6.43;;
21827;SDS011;11076;47.942;11.804;2023-09-07T21:42:51;12.13;;;8.30;;
21827;SDS011;11076;47.942;11.804;2023-09-07T21:47:54;9.02;;;7.18;;
21827;SDS011;11076;47.942;11.804;2023-09-07T21:52:56;10.50;;;7.95;;
21827;SDS011;11076;47.942;11.804;2023-09-07T21:57:59;10.82;;;7.63;;
21827;SDS011;11076;47.942;11.804;2023-09-07T22:03:01;15.73;;;9.45;;
21827;SDS011;11076;47.942;11.804;2023-09-07T22:08:04;13.05;;;9.32;;
21827;SDS011;11076;47.942;11.804;2023-09-07T22:13:06;15.68;;;8.68;;
21827;SDS011;11076;47.942;11.804;2023-09-07T22:18:08;12.20;;;8.60;;
21827;SDS011;11076;47.942;11.804;2023-09-07T22:23:11;10.30;;;8.20;;
21827;SDS011;11076;47.942;11.804;2023-09-07T22:28:14;12.00;;;7.53;;
21827;SDS011;11076;47.942;11.804;2023-09-07T22:33:16;11.13;;;7.10;;
21827;SDS011;11076;47.942;11.804;2023-09-07T22:38:20;9.93;;;6.82;;
21827;SDS011;11076;47.942;11.804;2023-09-07T22:43:23;8.68;;;6.72;;
21827;SDS011;11076;47.942;11.804;2023-09-07T22:48:26;9.43;;;7.30;;
21827;SDS011;11076;47.942;11.804;2023-09-07T22:53:28;9.23;;;7.07;;
21827;SDS011;11076;47.942;11.804;2023-09-07T22:58:31;11.10;;;7.53;;
21827;SDS011;11076;47.942;11.804;2023-09-07T23:03:33;7.93;;;7.15;;
21827;SDS011;11076;47.942;11.804;2023-09-07T23:08:36;10.40;;;6.97;;
21827;SDS011;11076;47.942;11.804;2023-09-07T23:13:39;7.45;;;6.55;;
21827;SDS011;11076;47.942;11.804;2023-09-07T23:18:41;7.97;;;6.70;;
21827;SDS011;11076;47.942;11.804;2023-09-07T23:23:44;8.15;;;6.13;;
21827;SDS011;11076;47.942;11.804;2023-09-07T23:28:46;10.35;;;6.72;;
21827;SDS011;11076;47.942;11.804;2023-09-07T23:33:50;14.20;;;6.90;;
21827;SDS011;11076;47.942;11.804;2023-09-07T23:38:52;9.85;;;6.97;;
21827;SDS011;11076;47.942;11.804;2023-09-07T23:43:55;10.15;;;7.43;;
21827;SDS011;11076;47.942;11.804;2023-09-07T23:48:57;9.43;;;7.60;;
21827;SDS011;11076;47.942;11.804;2023-09-07T23:54:00;10.75;;;7.20;;
21827;SDS011;11076;47.942;11.804;2023-09-07T23:59:02;10.25;;;7.28;;
